sensor_id;sensor_type;location;lat;lon;timestamp;P1;durP1;ratioP1;P2;durP2;ratioP2
2177;SDS011;1095;50.992;6.798;2023-07-31T00:01:40;15.70;;;5.93;;
2177;SDS011;1095;50.992;6.798;2023-07-31T00:04:07;17.23;;;6.60;;
2177;SDS011;1095;50.992;6.798;2023-07-31T00:06:43;14.88;;;5.90;;
2177;SDS011;1095;50.992;6.798;2023-07-31T00:09:15;11.50;;;5.20;;
2177;SDS011;1095;50.992;6.798;2023-07-31T00:11:42;11.57;;;6.13;;
2177;SDS011;1095;50.992;6.798;2023-07-31T00:14:09;11.95;;;6.20;;
2177;SDS011;1095;50.992;6.798;2023-07-31T00:16:44;11.88;;;5.93;;
2177;SDS011;1095;50.992;6.798;2023-07-31T00:19:11;16.83;;;6.68;;
2177;SDS011;1095;50.992;6.798;2023-07-31T00:21:44;11.35;;;5.88;;
2177;SDS011;1095;50.992;6.798;2023-07-31T00:24:11;13.82;;;6.20;;
2177;SDS011;1095;50.992;6.798;2023-07-31T00:26:43;15.07;;;6.32;;
2177;SDS011;1095;50.992;6.798;2023-07-31T00:29:31;13.55;;;6.50;;
2177;SDS011;1095;50.992;6.798;2023-07-31T00:36:03;12.32;;;5.57;;
2177;SDS011;1095;50.992;6.798;2023-07-31T00:38:35;12.45;;;6.25;;
2177;SDS011;1095;50.992;6.798;2023-07-31T00:41:25;10.48;;;5.57;;
2177;SDS011;1095;50.992;6.798;2023-07-31T00:43:52;12.77;;;5.63;;
2177;SDS011;1095;50.992;6.798;2023-07-31T00:46:18;10.52;;;5.38;;
2177;SDS011;1095;50.992;6.798;2023-07-31T00:48:46;12.45;;;5.65;;
2177;SDS011;1095;50.992;6.798;2023-07-31T00:51:13;12.50;;;5.50;;
2177;SDS011;1095;50.992;6.798;2023-07-31T00:53:41;14.30;;;5.45;;
2177;SDS011;1095;50.992;6.798;2023-07-31T00:56:09;10.93;;;5.47;;
2177;SDS011;1095;50.992;6.798;2023-07-31T00:58:37;16.42;;;5.50;;
2177;SDS011;1095;50.992;6.798;2023-07-31T01:01:03;12.23;;;6.05;;
2177;SDS011;1095;50.992;6.798;2023-07-31T01:03:30;10.65;;;5.25;;
2177;SDS011;1095;50.992;6.798;2023-07-31T01:05:59;16.30;;;5.65;;
2177;SDS011;1095;50.992;6.798;2023-07-31T01:08:40;9.13;;;5.07;;
2177;SDS011;1095;50.992;6.798;2023-07-31T01:11:22;9.23;;;5.20;;
2177;SDS011;1095;50.992;6.798;2023-07-31T01:13:54;12.55;;;5.22;;
2177;SDS011;1095;50.992;6.798;2023-07-31T01:16:24;13.25;;;5.88;;
2177;SDS011;1095;50.992;6.798;2023-07-31T01:18:54;13.23;;;5.20;;
2177;SDS011;1095;50.992;6.798;2023-07-31T01:21:30;13.65;;;5.55;;
2177;SDS011;1095;50.992;6.798;2023-07-31T01:24:27;12.60;;;5.82;;
2177;SDS011;1095;50.992;6.798;2023-07-31T01:27:02;12.45;;;5.57;;
2177;SDS011;1095;50.992;6.798;2023-07-31T01:29:36;11.57;;;5.72;;
2177;SDS011;1095;50.992;6.798;2023-07-31T01:32:09;13.48;;;5.75;;
2177;SDS011;1095;50.992;6.798;2023-07-31T01:34:38;16.90;;;5.55;;
2177;SDS011;1095;50.992;6.798;2023-07-31T01:37:07;10.48;;;5.18;;
2177;SDS011;1095;50.992;6.798;2023-07-31T01:39:33;11.45;;;5.47;;
2177;SDS011;1095;50.992;6.798;2023-07-31T01:42:01;10.90;;;5.55;;
2177;SDS011;1095;50.992;6.798;2023-07-31T01:44:31;10.98;;;5.50;;
2177;SDS011;1095;50.992;6.798;2023-07-31T01:46:58;12.30;;;5.30;;
2177;SDS011;1095;50.992;6.798;2023-07-31T01:49:27;12.48;;;5.47;;
2177;SDS011;1095;50.992;6.798;2023-07-31T01:51:54;11.10;;;5.60;;
2177;SDS011;1095;50.992;6.798;2023-07-31T01:54:23;13.20;;;5.68;;
2177;SDS011;1095;50.992;6.798;2023-07-31T01:56:52;12.93;;;5.53;;
2177;SDS011;1095;50.992;6.798;2023-07-31T01:59:20;13.50;;;5.82;;
2177;SDS011;1095;50.992;6.798;2023-07-31T02:01:47;12.52;;;6.80;;
2177;SDS011;1095;50.992;6.798;2023-07-31T02:04:13;15.60;;;5.30;;
2177;SDS011;1095;50.992;6.798;2023-07-31T02:06:40;11.73;;;5.45;;
2177;SDS011;1095;50.992;6.798;2023-07-31T02:09:07;11.55;;;5.38;;
2177;SDS011;1095;50.992;6.798;2023-07-31T02:11:33;15.63;;;5.07;;
2177;SDS011;1095;50.992;6.798;2023-07-31T02:14:00;10.38;;;5.53;;
2177;SDS011;1095;50.992;6.798;2023-07-31T02:16:28;9.68;;;5.05;;
2177;SDS011;1095;50.992;6.798;2023-07-31T02:18:54;10.00;;;5.43;;
2177;SDS011;1095;50.992;6.798;2023-07-31T02:21:23;8.82;;;5.55;;
2177;SDS011;1095;50.992;6.798;2023-07-31T02:23:51;8.93;;;4.93;;
2177;SDS011;1095;50.992;6.798;2023-07-31T02:26:37;13.55;;;5.93;;
2177;SDS011;1095;50.992;6.798;2023-07-31T02:29:04;13.85;;;5.63;;
2177;SDS011;1095;50.992;6.798;2023-07-31T02:31:32;12.30;;;5.82;;
2177;SDS011;1095;50.992;6.798;2023-07-31T02:34:01;9.63;;;5.50;;
2177;SDS011;1095;50.992;6.798;2023-07-31T02:36:27;12.77;;;5.50;;
2177;SDS011;1095;50.992;6.798;2023-07-31T02:38:54;12.48;;;5.70;;
2177;SDS011;1095;50.992;6.798;2023-07-31T02:41:20;11.05;;;5.82;;
2177;SDS011;1095;50.992;6.798;2023-07-31T02:43:47;11.65;;;5.72;;
2177;SDS011;1095;50.992;6.798;2023-07-31T02:46:14;10.93;;;5.68;;
2177;SDS011;1095;50.992;6.798;2023-07-31T02:48:42;12.75;;;5.65;;
2177;SDS011;1095;50.992;6.798;2023-07-31T02:51:08;11.32;;;5.93;;
2177;SDS011;1095;50.992;6.798;2023-07-31T02:53:35;13.32;;;5.72;;
2177;SDS011;1095;50.992;6.798;2023-07-31T02:56:01;12.13;;;6.15;;
2177;SDS011;1095;50.992;6.798;2023-07-31T02:58:28;14.10;;;5.85;;
2177;SDS011;1095;50.992;6.798;2023-07-31T03:00:54;11.07;;;5.78;;
2177;SDS011;1095;50.992;6.798;2023-07-31T03:03:21;11.27;;;6.28;;
2177;SDS011;1095;50.992;6.798;2023-07-31T03:05:49;15.98;;;6.38;;
2177;SDS011;1095;50.992;6.798;2023-07-31T03:08:16;9.90;;;5.47;;
2177;SDS011;1095;50.992;6.798;2023-07-31T03:10:43;10.30;;;5.97;;
2177;SDS011;1095;50.992;6.798;2023-07-31T03:13:10;13.80;;;5.72;;
2177;SDS011;1095;50.992;6.798;2023-07-31T03:15:36;12.68;;;6.13;;
2177;SDS011;1095;50.992;6.798;2023-07-31T03:18:03;13.00;;;6.63;;
2177;SDS011;1095;50.992;6.798;2023-07-31T03:20:29;11.60;;;5.65;;
2177;SDS011;1095;50.992;6.798;2023-07-31T03:22:57;16.23;;;6.50;;
2177;SDS011;1095;50.992;6.798;2023-07-31T03:25:24;9.93;;;5.78;;
2177;SDS011;1095;50.992;6.798;2023-07-31T03:27:50;14.80;;;5.93;;
2177;SDS011;1095;50.992;6.798;2023-07-31T03:30:17;9.90;;;5.90;;
2177;SDS011;1095;50.992;6.798;2023-07-31T03:32:48;15.18;;;6.35;;
2177;SDS011;1095;50.992;6.798;2023-07-31T03:38:13;16.88;;;6.03;;
2177;SDS011;1095;50.992;6.798;2023-07-31T03:40:40;13.88;;;6.30;;
2177;SDS011;1095;50.992;6.798;2023-07-31T03:43:07;12.55;;;6.28;;
2177;SDS011;1095;50.992;6.798;2023-07-31T03:45:34;11.48;;;5.93;;
2177;SDS011;1095;50.992;6.798;2023-07-31T03:48:00;10.52;;;6.20;;
2177;SDS011;1095;50.992;6.798;2023-07-31T03:50:27;13.18;;;6.00;;
2177;SDS011;1095;50.992;6.798;2023-07-31T03:52:54;9.75;;;5.95;;
2177;SDS011;1095;50.992;6.798;2023-07-31T03:55:22;13.52;;;6.00;;
2177;SDS011;1095;50.992;6.798;2023-07-31T03:57:48;15.13;;;6.05;;
2177;SDS011;1095;50.992;6.798;2023-07-31T04:00:15;14.60;;;6.80;;
2177;SDS011;1095;50.992;6.798;2023-07-31T04:02:42;11.57;;;6.25;;
2177;SDS011;1095;50.992;6.798;2023-07-31T04:05:08;11.38;;;6.25;;
2177;SDS011;1095;50.992;6.798;2023-07-31T04:07:35;12.75;;;6.90;;
2177;SDS011;1095;50.992;6.798;2023-07-31T04:10:02;11.73;;;6.40;;
2177;SDS011;1095;50.992;6.798;2023-07-31T04:12:31;16.75;;;6.60;;
2177;SDS011;1095;50.992;6.798;2023-07-31T04:14:57;14.23;;;6.93;;
2177;SDS011;1095;50.992;6.798;2023-07-31T04:17:24;14.30;;;7.10;;
2177;SDS011;1095;50.992;6.798;2023-07-31T04:19:51;16.42;;;6.85;;
2177;SDS011;1095;50.992;6.798;2023-07-31T04:22:17;10.20;;;6.35;;
2177;SDS011;1095;50.992;6.798;2023-07-31T04:24:45;10.90;;;6.47;;
2177;SDS011;1095;50.992;6.798;2023-07-31T04:27:11;11.63;;;6.55;;
2177;SDS011;1095;50.992;6.798;2023-07-31T04:29:42;9.93;;;5.97;;
2177;SDS011;1095;50.992;6.798;2023-07-31T04:32:11;14.23;;;6.75;;
2177;SDS011;1095;50.992;6.798;2023-07-31T04:34:38;12.90;;;6.60;;
2177;SDS011;1095;50.992;6.798;2023-07-31T04:37:04;13.60;;;6.10;;
2177;SDS011;1095;50.992;6.798;2023-07-31T04:39:31;11.02;;;6.30;;
2177;SDS011;1095;50.992;6.798;2023-07-31T04:41:58;12.48;;;6.07;;
2177;SDS011;1095;50.992;6.798;2023-07-31T04:44:24;10.50;;;6.40;;
2177;SDS011;1095;50.992;6.798;2023-07-31T04:46:52;13.00;;;6.47;;
2177;SDS011;1095;50.992;6.798;2023-07-31T04:49:19;10.13;;;6.15;;
2177;SDS011;1095;50.992;6.798;2023-07-31T04:51:46;13.45;;;6.18;;
2177;SDS011;1095;50.992;6.798;2023-07-31T04:54:12;11.75;;;7.07;;
2177;SDS011;1095;50.992;6.798;2023-07-31T04:56:39;11.63;;;6.50;;
2177;SDS011;1095;50.992;6.798;2023-07-31T04:59:06;12.15;;;6.30;;
2177;SDS011;1095;50.992;6.798;2023-07-31T05:01:33;12.63;;;6.63;;
2177;SDS011;1095;50.992;6.798;2023-07-31T05:04:01;11.90;;;6.28;;
2177;SDS011;1095;50.992;6.798;2023-07-31T05:06:27;11.55;;;7.13;;
2177;SDS011;1095;50.992;6.798;2023-07-31T05:08:54;12.18;;;6.50;;
2177;SDS011;1095;50.992;6.798;2023-07-31T05:11:20;8.57;;;5.78;;
2177;SDS011;1095;50.992;6.798;2023-07-31T05:13:47;11.02;;;6.45;;
2177;SDS011;1095;50.992;6.798;2023-07-31T05:16:14;12.60;;;6.55;;
2177;SDS011;1095;50.992;6.798;2023-07-31T05:18:40;9.82;;;6.10;;
2177;SDS011;1095;50.992;6.798;2023-07-31T05:21:08;15.32;;;6.32;;
2177;SDS011;1095;50.992;6.798;2023-07-31T05:23:35;11.70;;;6.18;;
2177;SDS011;1095;50.992;6.798;2023-07-31T05:26:02;12.07;;;6.43;;
2177;SDS011;1095;50.992;6.798;2023-07-31T05:28:33;7.80;;;5.40;;
2177;SDS011;1095;50.992;6.798;2023-07-31T05:31:00;9.15;;;5.93;;
2177;SDS011;1095;50.992;6.798;2023-07-31T05:33:28;9.10;;;5.85;;
2177;SDS011;1095;50.992;6.798;2023-07-31T05:35:54;9.85;;;5.78;;
2177;SDS011;1095;50.992;6.798;2023-07-31T05:38:22;11.00;;;6.10;;
2177;SDS011;1095;50.992;6.798;2023-07-31T05:40:49;9.23;;;6.03;;
2177;SDS011;1095;50.992;6.798;2023-07-31T05:43:16;10.20;;;5.95;;
2177;SDS011;1095;50.992;6.798;2023-07-31T05:45:42;9.35;;;5.90;;
2177;SDS011;1095;50.992;6.798;2023-07-31T05:48:09;10.65;;;5.68;;
2177;SDS011;1095;50.992;6.798;2023-07-31T05:50:38;9.38;;;5.93;;
2177;SDS011;1095;50.992;6.798;2023-07-31T05:53:05;9.23;;;5.57;;
2177;SDS011;1095;50.992;6.798;2023-07-31T05:55:34;9.77;;;5.43;;
2177;SDS011;1095;50.992;6.798;2023-07-31T05:58:00;8.73;;;5.32;;
2177;SDS011;1095;50.992;6.798;2023-07-31T06:00:30;9.05;;;5.90;;
2177;SDS011;1095;50.992;6.798;2023-07-31T06:02:57;10.93;;;6.03;;
2177;SDS011;1095;50.992;6.798;2023-07-31T06:05:24;13.45;;;6.45;;
2177;SDS011;1095;50.992;6.798;2023-07-31T06:07:51;9.88;;;6.03;;
2177;SDS011;1095;50.992;6.798;2023-07-31T06:10:18;9.55;;;5.75;;
2177;SDS011;1095;50.992;6.798;2023-07-31T06:12:45;15.93;;;5.82;;
2177;SDS011;1095;50.992;6.798;2023-07-31T06:15:12;10.55;;;5.95;;
2177;SDS011;1095;50.992;6.798;2023-07-31T06:17:39;11.60;;;6.20;;
2177;SDS011;1095;50.992;6.798;2023-07-31T06:20:06;10.13;;;5.68;;
2177;SDS011;1095;50.992;6.798;2023-07-31T06:22:33;13.82;;;6.30;;
2177;SDS011;1095;50.992;6.798;2023-07-31T06:25:00;11.57;;;6.57;;
2177;SDS011;1095;50.992;6.798;2023-07-31T06:27:27;14.10;;;6.25;;
2177;SDS011;1095;50.992;6.798;2023-07-31T06:29:54;10.60;;;5.78;;
2177;SDS011;1095;50.992;6.798;2023-07-31T06:32:22;10.80;;;6.28;;
2177;SDS011;1095;50.992;6.798;2023-07-31T06:34:49;11.52;;;5.97;;
2177;SDS011;1095;50.992;6.798;2023-07-31T06:37:17;13.27;;;6.20;;
2177;SDS011;1095;50.992;6.798;2023-07-31T06:39:43;10.60;;;6.13;;
2177;SDS011;1095;50.992;6.798;2023-07-31T06:42:10;10.98;;;5.72;;
2177;SDS011;1095;50.992;6.798;2023-07-31T06:44:36;9.73;;;5.93;;
2177;SDS011;1095;50.992;6.798;2023-07-31T06:47:05;10.77;;;6.00;;
2177;SDS011;1095;50.992;6.798;2023-07-31T06:49:34;10.23;;;5.45;;
2177;SDS011;1095;50.992;6.798;2023-07-31T06:52:00;12.93;;;6.13;;
2177;SDS011;1095;50.992;6.798;2023-07-31T06:54:27;8.70;;;5.63;;
2177;SDS011;1095;50.992;6.798;2023-07-31T06:56:54;11.00;;;5.65;;
2177;SDS011;1095;50.992;6.798;2023-07-31T06:59:20;8.07;;;5.22;;
2177;SDS011;1095;50.992;6.798;2023-07-31T07:01:47;13.65;;;6.25;;
2177;SDS011;1095;50.992;6.798;2023-07-31T07:04:15;10.57;;;5.85;;
2177;SDS011;1095;50.992;6.798;2023-07-31T07:06:41;10.38;;;5.68;;
2177;SDS011;1095;50.992;6.798;2023-07-31T07:09:08;9.60;;;6.00;;
2177;SDS011;1095;50.992;6.798;2023-07-31T07:11:34;10.43;;;5.85;;
2177;SDS011;1095;50.992;6.798;2023-07-31T07:14:02;10.75;;;5.30;;
2177;SDS011;1095;50.992;6.798;2023-07-31T07:16:29;8.98;;;5.38;;
2177;SDS011;1095;50.992;6.798;2023-07-31T07:18:55;10.38;;;5.50;;
2177;SDS011;1095;50.992;6.798;2023-07-31T07:21:24;15.02;;;5.50;;
2177;SDS011;1095;50.992;6.798;2023-07-31T07:23:50;9.05;;;5.50;;
2177;SDS011;1095;50.992;6.798;2023-07-31T07:26:17;10.32;;;5.43;;
2177;SDS011;1095;50.992;6.798;2023-07-31T07:28:43;9.77;;;5.50;;
2177;SDS011;1095;50.992;6.798;2023-07-31T07:31:10;7.80;;;5.13;;
2177;SDS011;1095;50.992;6.798;2023-07-31T07:33:36;12.45;;;5.78;;
2177;SDS011;1095;50.992;6.798;2023-07-31T07:36:03;9.98;;;5.38;;
2177;SDS011;1095;50.992;6.798;2023-07-31T07:38:36;9.70;;;5.80;;
2177;SDS011;1095;50.992;6.798;2023-07-31T07:41:04;10.63;;;5.63;;
2177;SDS011;1095;50.992;6.798;2023-07-31T07:43:31;11.73;;;5.90;;
2177;SDS011;1095;50.992;6.798;2023-07-31T07:45:57;13.60;;;6.40;;
2177;SDS011;1095;50.992;6.798;2023-07-31T07:48:24;11.07;;;5.35;;
2177;SDS011;1095;50.992;6.798;2023-07-31T07:50:51;9.40;;;5.60;;
2177;SDS011;1095;50.992;6.798;2023-07-31T07:53:18;9.70;;;5.72;;
2177;SDS011;1095;50.992;6.798;2023-07-31T07:55:45;11.25;;;5.57;;
2177;SDS011;1095;50.992;6.798;2023-07-31T07:58:12;10.75;;;5.93;;
2177;SDS011;1095;50.992;6.798;2023-07-31T08:00:39;8.73;;;5.35;;
2177;SDS011;1095;50.992;6.798;2023-07-31T08:03:05;12.27;;;5.45;;
2177;SDS011;1095;50.992;6.798;2023-07-31T08:05:32;7.47;;;4.70;;
2177;SDS011;1095;50.992;6.798;2023-07-31T08:07:59;10.70;;;5.40;;
2177;SDS011;1095;50.992;6.798;2023-07-31T08:10:26;8.20;;;5.05;;
2177;SDS011;1095;50.992;6.798;2023-07-31T08:12:54;11.57;;;5.55;;
2177;SDS011;1095;50.992;6.798;2023-07-31T08:15:20;7.95;;;5.13;;
2177;SDS011;1095;50.992;6.798;2023-07-31T08:17:47;9.18;;;5.13;;
2177;SDS011;1095;50.992;6.798;2023-07-31T08:20:13;8.25;;;4.82;;
2177;SDS011;1095;50.992;6.798;2023-07-31T08:22:40;8.35;;;5.32;;
2177;SDS011;1095;50.992;6.798;2023-07-31T08:25:07;11.32;;;5.05;;
2177;SDS011;1095;50.992;6.798;2023-07-31T08:27:34;9.30;;;5.03;;
2177;SDS011;1095;50.992;6.798;2023-07-31T08:30:02;7.45;;;4.88;;
2177;SDS011;1095;50.992;6.798;2023-07-31T08:32:29;9.18;;;5.78;;
2177;SDS011;1095;50.992;6.798;2023-07-31T08:34:56;8.45;;;5.10;;
2177;SDS011;1095;50.992;6.798;2023-07-31T08:37:23;7.55;;;5.10;;
2177;SDS011;1095;50.992;6.798;2023-07-31T08:39:54;9.35;;;5.13;;
2177;SDS011;1095;50.992;6.798;2023-07-31T08:42:21;8.95;;;5.15;;
2177;SDS011;1095;50.992;6.798;2023-07-31T08:44:47;8.38;;;4.95;;
2177;SDS011;1095;50.992;6.798;2023-07-31T08:47:17;8.63;;;5.03;;
2177;SDS011;1095;50.992;6.798;2023-07-31T08:49:48;9.68;;;5.00;;
2177;SDS011;1095;50.992;6.798;2023-07-31T08:52:15;9.43;;;5.13;;
2177;SDS011;1095;50.992;6.798;2023-07-31T08:54:42;8.40;;;4.93;;
2177;SDS011;1095;50.992;6.798;2023-07-31T08:57:08;10.18;;;4.88;;
2177;SDS011;1095;50.992;6.798;2023-07-31T08:59:37;6.88;;;4.47;;
2177;SDS011;1095;50.992;6.798;2023-07-31T09:02:05;13.07;;;4.97;;
2177;SDS011;1095;50.992;6.798;2023-07-31T09:04:35;8.75;;;4.75;;
2177;SDS011;1095;50.992;6.798;2023-07-31T09:07:02;9.02;;;4.72;;
2177;SDS011;1095;50.992;6.798;2023-07-31T09:09:29;7.50;;;4.45;;
2177;SDS011;1095;50.992;6.798;2023-07-31T09:11:57;8.05;;;4.53;;
2177;SDS011;1095;50.992;6.798;2023-07-31T09:14:24;7.65;;;4.70;;
2177;SDS011;1095;50.992;6.798;2023-07-31T09:16:52;6.53;;;4.85;;
2177;SDS011;1095;50.992;6.798;2023-07-31T09:19:26;9.82;;;4.80;;
2177;SDS011;1095;50.992;6.798;2023-07-31T09:21:55;7.68;;;4.22;;
2177;SDS011;1095;50.992;6.798;2023-07-31T09:24:25;7.05;;;4.65;;
2177;SDS011;1095;50.992;6.798;2023-07-31T09:26:53;7.93;;;4.70;;
2177;SDS011;1095;50.992;6.798;2023-07-31T09:29:20;9.02;;;4.50;;
2177;SDS011;1095;50.992;6.798;2023-07-31T09:31:47;8.13;;;4.60;;
2177;SDS011;1095;50.992;6.798;2023-07-31T09:34:13;7.70;;;4.40;;
2177;SDS011;1095;50.992;6.798;2023-07-31T09:36:41;7.68;;;4.47;;
2177;SDS011;1095;50.992;6.798;2023-07-31T09:39:10;6.20;;;4.25;;
2177;SDS011;1095;50.992;6.798;2023-07-31T09:41:37;6.68;;;4.45;;
2177;SDS011;1095;50.992;6.798;2023-07-31T09:44:05;8.15;;;4.32;;
2177;SDS011;1095;50.992;6.798;2023-07-31T09:46:32;6.82;;;4.25;;
2177;SDS011;1095;50.992;6.798;2023-07-31T09:49:08;13.75;;;5.15;;
2177;SDS011;1095;50.992;6.798;2023-07-31T09:51:35;9.00;;;5.55;;
2177;SDS011;1095;50.992;6.798;2023-07-31T09:54:04;8.23;;;4.40;;
2177;SDS011;1095;50.992;6.798;2023-07-31T09:56:38;7.15;;;4.50;;
2177;SDS011;1095;50.992;6.798;2023-07-31T09:59:08;6.00;;;4.82;;
2177;SDS011;1095;50.992;6.798;2023-07-31T10:01:38;7.43;;;4.35;;
2177;SDS011;1095;50.992;6.798;2023-07-31T10:04:05;7.10;;;4.45;;
2177;SDS011;1095;50.992;6.798;2023-07-31T10:06:34;9.55;;;4.57;;
2177;SDS011;1095;50.992;6.798;2023-07-31T10:09:04;6.82;;;4.32;;
2177;SDS011;1095;50.992;6.798;2023-07-31T10:11:35;6.35;;;4.78;;
2177;SDS011;1095;50.992;6.798;2023-07-31T10:14:04;8.07;;;4.47;;
2177;SDS011;1095;50.992;6.798;2023-07-31T10:16:31;5.45;;;4.30;;
2177;SDS011;1095;50.992;6.798;2023-07-31T10:18:59;9.80;;;4.78;;
2177;SDS011;1095;50.992;6.798;2023-07-31T10:21:26;5.72;;;3.95;;
2177;SDS011;1095;50.992;6.798;2023-07-31T10:23:53;11.82;;;4.95;;
2177;SDS011;1095;50.992;6.798;2023-07-31T10:26:20;8.00;;;4.78;;
2177;SDS011;1095;50.992;6.798;2023-07-31T10:28:50;8.35;;;4.80;;
2177;SDS011;1095;50.992;6.798;2023-07-31T10:31:19;7.68;;;4.30;;
2177;SDS011;1095;50.992;6.798;2023-07-31T10:33:47;6.07;;;4.35;;
2177;SDS011;1095;50.992;6.798;2023-07-31T10:36:14;8.32;;;4.60;;
2177;SDS011;1095;50.992;6.798;2023-07-31T10:38:44;7.65;;;4.60;;
2177;SDS011;1095;50.992;6.798;2023-07-31T10:41:12;6.18;;;4.43;;
2177;SDS011;1095;50.992;6.798;2023-07-31T10:43:38;7.25;;;4.30;;
2177;SDS011;1095;50.992;6.798;2023-07-31T10:46:09;6.72;;;4.07;;
2177;SDS011;1095;50.992;6.798;2023-07-31T10:48:39;7.60;;;4.20;;
2177;SDS011;1095;50.992;6.798;2023-07-31T10:51:07;6.38;;;4.03;;
2177;SDS011;1095;50.992;6.798;2023-07-31T10:53:35;5.45;;;3.58;;
2177;SDS011;1095;50.992;6.798;2023-07-31T10:56:02;8.57;;;3.90;;
2177;SDS011;1095;50.992;6.798;2023-07-31T10:58:30;5.65;;;3.92;;
2177;SDS011;1095;50.992;6.798;2023-07-31T11:00:59;6.00;;;3.40;;
2177;SDS011;1095;50.992;6.798;2023-07-31T11:03:41;5.10;;;3.67;;
2177;SDS011;1095;50.992;6.798;2023-07-31T11:06:09;4.90;;;3.08;;
2177;SDS011;1095;50.992;6.798;2023-07-31T11:08:40;7.18;;;3.25;;
2177;SDS011;1095;50.992;6.798;2023-07-31T11:11:08;4.38;;;2.90;;
2177;SDS011;1095;50.992;6.798;2023-07-31T11:13:41;2.30;;;2.03;;
2177;SDS011;1095;50.992;6.798;2023-07-31T11:16:09;4.45;;;2.30;;
2177;SDS011;1095;50.992;6.798;2023-07-31T11:18:38;3.00;;;2.40;;
2177;SDS011;1095;50.992;6.798;2023-07-31T11:21:07;3.40;;;1.95;;
2177;SDS011;1095;50.992;6.798;2023-07-31T11:23:36;5.82;;;2.60;;
2177;SDS011;1095;50.992;6.798;2023-07-31T11:26:06;2.90;;;2.30;;
2177;SDS011;1095;50.992;6.798;2023-07-31T11:28:34;4.05;;;2.30;;
2177;SDS011;1095;50.992;6.798;2023-07-31T11:31:03;3.47;;;2.22;;
2177;SDS011;1095;50.992;6.798;2023-07-31T11:33:30;3.55;;;2.03;;
2177;SDS011;1095;50.992;6.798;2023-07-31T11:35:57;2.95;;;1.80;;
2177;SDS011;1095;50.992;6.798;2023-07-31T11:38:26;2.10;;;1.60;;
2177;SDS011;1095;50.992;6.798;2023-07-31T11:40:54;2.40;;;2.00;;
2177;SDS011;1095;50.992;6.798;2023-07-31T11:43:22;6.25;;;1.80;;
2177;SDS011;1095;50.992;6.798;2023-07-31T11:45:50;2.25;;;1.98;;
2177;SDS011;1095;50.992;6.798;2023-07-31T11:48:18;3.75;;;2.15;;
2177;SDS011;1095;50.992;6.798;2023-07-31T11:50:47;2.17;;;1.83;;
2177;SDS011;1095;50.992;6.798;2023-07-31T11:53:15;3.08;;;2.53;;
2177;SDS011;1095;50.992;6.798;2023-07-31T11:55:46;3.33;;;2.05;;
2177;SDS011;1095;50.992;6.798;2023-07-31T11:58:13;3.85;;;2.30;;
2177;SDS011;1095;50.992;6.798;2023-07-31T12:00:42;3.05;;;2.42;;
2177;SDS011;1095;50.992;6.798;2023-07-31T12:03:09;6.65;;;2.78;;
2177;SDS011;1095;50.992;6.798;2023-07-31T12:05:36;4.28;;;2.80;;
2177;SDS011;1095;50.992;6.798;2023-07-31T12:08:05;3.63;;;2.53;;
2177;SDS011;1095;50.992;6.798;2023-07-31T12:10:36;4.95;;;3.20;;
2177;SDS011;1095;50.992;6.798;2023-07-31T12:13:07;5.75;;;3.20;;
2177;SDS011;1095;50.992;6.798;2023-07-31T12:15:39;5.72;;;3.30;;
2177;SDS011;1095;50.992;6.798;2023-07-31T12:18:08;7.90;;;3.90;;
2177;SDS011;1095;50.992;6.798;2023-07-31T12:20:40;4.35;;;3.65;;
2177;SDS011;1095;50.992;6.798;2023-07-31T12:23:12;7.72;;;3.85;;
2177;SDS011;1095;50.992;6.798;2023-07-31T12:25:40;5.13;;;3.83;;
2177;SDS011;1095;50.992;6.798;2023-07-31T12:28:08;7.68;;;3.80;;
2177;SDS011;1095;50.992;6.798;2023-07-31T12:30:37;9.40;;;4.43;;
2177;SDS011;1095;50.992;6.798;2023-07-31T12:33:06;8.32;;;4.03;;
2177;SDS011;1095;50.992;6.798;2023-07-31T12:35:40;4.85;;;3.70;;
2177;SDS011;1095;50.992;6.798;2023-07-31T12:38:07;7.88;;;4.22;;
2177;SDS011;1095;50.992;6.798;2023-07-31T12:40:36;6.57;;;4.43;;
2177;SDS011;1095;50.992;6.798;2023-07-31T12:43:04;7.70;;;4.13;;
2177;SDS011;1095;50.992;6.798;2023-07-31T12:45:32;5.93;;;4.28;;
2177;SDS011;1095;50.992;6.798;2023-07-31T12:47:59;5.95;;;3.95;;
2177;SDS011;1095;50.992;6.798;2023-07-31T12:50:29;8.05;;;4.05;;
2177;SDS011;1095;50.992;6.798;2023-07-31T12:52:56;6.75;;;4.07;;
2177;SDS011;1095;50.992;6.798;2023-07-31T12:55:23;5.70;;;4.47;;
2177;SDS011;1095;50.992;6.798;2023-07-31T12:57:52;5.60;;;3.88;;
2177;SDS011;1095;50.992;6.798;2023-07-31T13:00:19;9.40;;;4.20;;
2177;SDS011;1095;50.992;6.798;2023-07-31T13:02:47;7.65;;;4.50;;
2177;SDS011;1095;50.992;6.798;2023-07-31T13:05:14;7.20;;;4.20;;
2177;SDS011;1095;50.992;6.798;2023-07-31T13:07:41;9.07;;;4.70;;
2177;SDS011;1095;50.992;6.798;2023-07-31T13:10:08;8.18;;;4.43;;
2177;SDS011;1095;50.992;6.798;2023-07-31T13:12:34;5.20;;;3.90;;
2177;SDS011;1095;50.992;6.798;2023-07-31T13:15:01;5.70;;;4.00;;
2177;SDS011;1095;50.992;6.798;2023-07-31T13:17:30;7.15;;;4.47;;
2177;SDS011;1095;50.992;6.798;2023-07-31T13:19:58;5.75;;;4.07;;
2177;SDS011;1095;50.992;6.798;2023-07-31T13:24:52;7.43;;;4.13;;
2177;SDS011;1095;50.992;6.798;2023-07-31T13:27:18;5.03;;;3.78;;
2177;SDS011;1095;50.992;6.798;2023-07-31T13:29:46;5.72;;;4.15;;
2177;SDS011;1095;50.992;6.798;2023-07-31T13:32:13;8.95;;;4.38;;
2177;SDS011;1095;50.992;6.798;2023-07-31T13:34:40;7.30;;;4.20;;
2177;SDS011;1095;50.992;6.798;2023-07-31T13:37:08;8.65;;;4.10;;
2177;SDS011;1095;50.992;6.798;2023-07-31T13:39:34;4.25;;;3.70;;
2177;SDS011;1095;50.992;6.798;2023-07-31T13:42:02;5.78;;;4.00;;
2177;SDS011;1095;50.992;6.798;2023-07-31T13:44:31;8.10;;;3.90;;
2177;SDS011;1095;50.992;6.798;2023-07-31T13:46:58;5.50;;;3.70;;
2177;SDS011;1095;50.992;6.798;2023-07-31T13:49:24;6.15;;;3.67;;
2177;SDS011;1095;50.992;6.798;2023-07-31T13:51:51;5.68;;;4.10;;
2177;SDS011;1095;50.992;6.798;2023-07-31T13:54:19;6.90;;;3.70;;
2177;SDS011;1095;50.992;6.798;2023-07-31T13:56:45;4.68;;;3.53;;
2177;SDS011;1095;50.992;6.798;2023-07-31T13:59:12;4.57;;;3.55;;
2177;SDS011;1095;50.992;6.798;2023-07-31T14:01:40;4.70;;;3.75;;
2177;SDS011;1095;50.992;6.798;2023-07-31T14:04:06;7.18;;;4.00;;
2177;SDS011;1095;50.992;6.798;2023-07-31T14:06:33;4.57;;;3.63;;
2177;SDS011;1095;50.992;6.798;2023-07-31T14:09:00;5.32;;;3.72;;
2177;SDS011;1095;50.992;6.798;2023-07-31T14:11:27;4.25;;;3.78;;
2177;SDS011;1095;50.992;6.798;2023-07-31T14:13:54;6.78;;;4.00;;
2177;SDS011;1095;50.992;6.798;2023-07-31T14:16:22;5.88;;;3.80;;
2177;SDS011;1095;50.992;6.798;2023-07-31T14:18:49;6.57;;;4.10;;
2177;SDS011;1095;50.992;6.798;2023-07-31T14:21:15;5.50;;;3.65;;
2177;SDS011;1095;50.992;6.798;2023-07-31T14:23:44;7.55;;;4.10;;
2177;SDS011;1095;50.992;6.798;2023-07-31T14:26:11;6.07;;;4.35;;
2177;SDS011;1095;50.992;6.798;2023-07-31T14:28:39;5.72;;;4.05;;
2177;SDS011;1095;50.992;6.798;2023-07-31T14:31:05;6.10;;;4.10;;
2177;SDS011;1095;50.992;6.798;2023-07-31T14:33:32;5.68;;;4.20;;
2177;SDS011;1095;50.992;6.798;2023-07-31T14:35:58;6.47;;;4.60;;
2177;SDS011;1095;50.992;6.798;2023-07-31T14:38:25;9.63;;;5.45;;
2177;SDS011;1095;50.992;6.798;2023-07-31T14:40:52;8.20;;;5.40;;
2177;SDS011;1095;50.992;6.798;2023-07-31T14:43:18;10.43;;;4.93;;
2177;SDS011;1095;50.992;6.798;2023-07-31T14:45:46;8.10;;;5.90;;
2177;SDS011;1095;50.992;6.798;2023-07-31T14:48:13;7.10;;;5.50;;
2177;SDS011;1095;50.992;6.798;2023-07-31T14:50:40;8.27;;;5.88;;
2177;SDS011;1095;50.992;6.798;2023-07-31T14:53:07;7.95;;;5.80;;
2177;SDS011;1095;50.992;6.798;2023-07-31T14:55:34;8.95;;;5.80;;
2177;SDS011;1095;50.992;6.798;2023-07-31T14:58:00;9.95;;;5.95;;
2177;SDS011;1095;50.992;6.798;2023-07-31T15:00:28;8.43;;;5.43;;
2177;SDS011;1095;50.992;6.798;2023-07-31T15:02:56;8.57;;;5.22;;
2177;SDS011;1095;50.992;6.798;2023-07-31T15:05:22;6.90;;;5.30;;
2177;SDS011;1095;50.992;6.798;2023-07-31T15:07:49;7.97;;;5.80;;
2177;SDS011;1095;50.992;6.798;2023-07-31T15:10:16;6.90;;;5.05;;
2177;SDS011;1095;50.992;6.798;2023-07-31T15:12:42;6.93;;;5.07;;
2177;SDS011;1095;50.992;6.798;2023-07-31T15:15:09;8.13;;;5.18;;
2177;SDS011;1095;50.992;6.798;2023-07-31T15:17:36;7.13;;;5.53;;
2177;SDS011;1095;50.992;6.798;2023-07-31T15:20:04;7.82;;;5.10;;
2177;SDS011;1095;50.992;6.798;2023-07-31T15:22:32;9.77;;;5.60;;
2177;SDS011;1095;50.992;6.798;2023-07-31T15:24:58;7.53;;;5.25;;